»·PEaware :: SWA803 KLAS-KLAX

SWA803 :: KLAS-KLAX

FLIGHT INFORMATION

Flight Status: Arrived
Operator:
Southwest Airlines
More flights by this operator :: More flights under this callsign
Pilot: Alfredo R. (12181)
Aircraft: BOEING 737-800
(B738)
More flights by this aircraft type
Origin: KLAS McCarran Intl
United States
Destination: KLAX Los Angeles Intl
United States
More flights between these airports :: More routes between these airports
Route: BOACH8 RIKII SHTNR ANJLL4
File this flight plan on PilotEdge
Remarks:
Altitude:
(Current/Filed)
28,000ft
Speed:
(Current/Filed)
425kts
Departed: 25-Jul-18 08:18 PM
Arrived: 25-Jul-18 09:04 PM
Distance/Time
Traveled:
205nm/0:46
Distance/Time
To Go:
Arrived

Flight Plot

Page will automatically refresh every two minutes.

Flight plan parsing failed; only flown route is shown


Map Options




Map Legend


Flown Route
Filed Route
Departure Airport
Arrival Airport
Navaid (VOR, NDB)
Fix

Horizontal Profiles

Position Reports

Time Latitude Longitude Heading Altitude Ground
Speed
25-Jul-18 19:47 36.080941 -115.145981 254 2091ft 0kts
25-Jul-18 19:48 36.080941 -115.145981 254 2091ft 0kts
25-Jul-18 19:49 36.080941 -115.145981 254 2091ft 0kts
25-Jul-18 19:50 36.080941 -115.145981 254 2091ft 0kts
25-Jul-18 19:51 36.080941 -115.145981 254 2091ft 0kts
25-Jul-18 19:52 36.080941 -115.145981 254 2091ft 0kts
25-Jul-18 19:53 36.080941 -115.145981 254 2091ft 0kts
25-Jul-18 19:54 36.080941 -115.145981 254 2091ft 0kts
25-Jul-18 19:55 36.080941 -115.145980 254 2091ft 0kts
25-Jul-18 19:56 36.080941 -115.145980 254 2091ft 0kts
25-Jul-18 19:57 36.080941 -115.145980 254 2091ft 0kts
25-Jul-18 19:58 36.080941 -115.145980 254 2091ft 0kts
25-Jul-18 19:59 36.080941 -115.145980 254 2091ft 0kts
25-Jul-18 20:00 36.080941 -115.145980 254 2091ft 0kts
25-Jul-18 20:01 36.080941 -115.145980 254 2091ft 0kts
25-Jul-18 20:02 36.080941 -115.145980 254 2091ft 0kts
25-Jul-18 20:03 36.080942 -115.145978 254 2091ft 0kts
25-Jul-18 20:04 36.081121 -115.145363 255 2089ft 2kts
25-Jul-18 20:05 36.081574 -115.145346 155 2088ft 0kts
25-Jul-18 20:06 36.080054 -115.144902 180 2090ft 7kts
25-Jul-18 20:07 36.078960 -115.144898 180 2093ft 0kts
25-Jul-18 20:08 36.078959 -115.144898 180 2092ft 0kts
25-Jul-18 20:09 36.078959 -115.144898 180 2092ft 0kts
25-Jul-18 20:10 36.078953 -115.144898 180 2092ft 0kts
25-Jul-18 20:11 36.078421 -115.145291 263 2095ft 1kts
25-Jul-18 20:12 36.078357 -115.147019 223 2101ft 7kts
25-Jul-18 20:13 36.077940 -115.149710 274 2110ft 9kts
25-Jul-18 20:14 36.078029 -115.154040 269 2127ft 15kts
25-Jul-18 20:15 36.078020 -115.158975 269 2145ft 14kts
25-Jul-18 20:16 36.077460 -115.161241 182 2154ft 2kts
25-Jul-18 20:17 36.077407 -115.161244 181 2154ft 0kts
25-Jul-18 20:18 36.076799 -115.161242 171 2155ft 8kts
25-Jul-18 20:19 36.076383 -115.144086 89 2095ft 140kts
25-Jul-18 20:20 36.075660 -115.082822 90 3327ft 212kts
25-Jul-18 20:21 36.075649 -114.997581 90 4991ft 270kts
25-Jul-18 20:22 36.031382 -114.930540 158 7817ft 278kts
25-Jul-18 20:23 35.954937 -114.918329 203 10057ft 294kts
25-Jul-18 20:24 35.889505 -114.987791 225 11884ft 326kts
25-Jul-18 20:25 35.825167 -115.068161 225 14516ft 339kts
25-Jul-18 20:26 35.764617 -115.159299 232 17072ft 352kts
25-Jul-18 20:27 35.702660 -115.254531 225 18933ft 366kts
25-Jul-18 20:28 35.609188 -115.298357 182 21117ft 365kts
25-Jul-18 20:29 35.507076 -115.306500 196 22681ft 375kts
25-Jul-18 20:30 35.414988 -115.366312 211 24195ft 381kts
25-Jul-18 20:31 35.323393 -115.433172 211 25608ft 387kts
25-Jul-18 20:32 35.230504 -115.500781 210 26892ft 392kts
25-Jul-18 20:33 35.138256 -115.567816 210 27867ft 400kts
25-Jul-18 20:34 35.055162 -115.664860 225 27847ft 429kts
25-Jul-18 20:35 34.972979 -115.770382 225 28024ft 443kts
25-Jul-18 20:36 34.888467 -115.878218 225 28047ft 443kts
25-Jul-18 20:37 34.804053 -115.985457 225 28047ft 443kts
25-Jul-18 20:38 34.720108 -116.092255 225 28046ft 439kts
25-Jul-18 20:39 34.638429 -116.196262 225 28044ft 423kts
25-Jul-18 20:40 34.557871 -116.298492 225 27933ft 422kts
25-Jul-18 20:41 34.477656 -116.399960 225 26661ft 423kts
25-Jul-18 20:42 34.405047 -116.503117 241 25143ft 398kts
25-Jul-18 20:43 34.357125 -116.619648 242 23671ft 392kts
25-Jul-18 20:44 34.310885 -116.733768 242 22193ft 384kts
25-Jul-18 20:45 34.264972 -116.848269 242 20696ft 379kts
25-Jul-18 20:46 34.219605 -116.960822 242 19196ft 372kts
25-Jul-18 20:47 34.184209 -117.076274 251 17704ft 367kts
25-Jul-18 20:48 34.153621 -117.191460 251 16216ft 362kts
25-Jul-18 20:49 34.123665 -117.301312 250 14742ft 347kts
25-Jul-18 20:50 34.096095 -117.403972 252 13320ft 334kts
25-Jul-18 20:51 34.069894 -117.509106 251 12132ft 327kts
25-Jul-18 20:52 34.043903 -117.611346 252 10924ft 312kts
25-Jul-18 20:53 34.019950 -117.705303 253 9683ft 290kts
25-Jul-18 20:54 34.010657 -117.800536 262 8487ft 284kts
25-Jul-18 20:55 34.002353 -117.891369 261 7250ft 259kts
25-Jul-18 20:56 33.994604 -117.972931 261 6131ft 232kts
25-Jul-18 20:57 33.987353 -118.047429 261 5110ft 216kts
25-Jul-18 20:58 33.981343 -118.115045 261 4092ft 195kts
25-Jul-18 20:59 33.975366 -118.175896 261 3816ft 183kts
25-Jul-18 21:00 33.969435 -118.234331 262 2903ft 168kts
25-Jul-18 21:01 33.963789 -118.289313 262 2007ft 158kts
25-Jul-18 21:02 33.958668 -118.338831 263 1180ft 146kts
25-Jul-18 21:03 33.953797 -118.386178 263 423ft 142kts
25-Jul-18 21:04 33.950290 -118.419548 263 119ft 43kts
25-Jul-18 21:05 33.948645 -118.426598 228 113ft 2kts
25-Jul-18 21:06 33.946447 -118.427549 125 109ft 10kts
25-Jul-18 21:07 33.946687 -118.423721 83 115ft 13kts
25-Jul-18 21:08 33.947266 -118.418082 83 119ft 19kts
25-Jul-18 21:09 33.948065 -118.411656 83 122ft 20kts
25-Jul-18 21:10 33.948776 -118.404738 83 119ft 19kts
25-Jul-18 21:11 33.947449 -118.402028 110 117ft 4kts

Navigation Log

Ident Type
Flight plan parsing failed, navigation log unavailable